Time;durP1;ratioP1;P1;durP2;ratioP2;P2;SDS_P1;SDS_P2;PMS_P1;PMS_P2;Temp;Humidity;BMP_temperature;BMP_pressure;BME280_temperature;BME280_humidity;BME280_pressure;Samples;Min_cycle;Max_cycle;Signal;HPM_P1;HPM_P2
2022/07/02 00:01:07;;;;;;;3.47;1.70;;;;;;;11.67;100.00;101168.81;5084142;28;20020;-70
2022/07/02 00:03:36;;;;;;;3.45;1.83;;;;;;;11.48;100.00;101137.16;5092646;28;20077;-70
2022/07/02 00:06:03;;;;;;;8.05;2.30;;;;;;;11.63;100.00;101159.31;5081201;28;20028;-70
2022/07/02 00:08:31;;;;;;;3.63;1.95;;;;;;;11.59;100.00;101163.84;5091863;28;20111;-71
2022/07/02 00:10:58;;;;;;;5.50;1.77;;;;;;;11.50;100.00;101150.22;5079752;28;20065;-71
2022/07/02 00:13:25;;;;;;;5.95;1.83;;;;;;;11.57;100.00;101162.22;5072785;28;20107;-71
2022/07/02 00:15:51;;;;;;;4.07;2.00;;;;;;;11.54;100.00;101162.34;5079453;28;20027;-71
2022/07/02 00:18:18;;;;;;;3.55;2.10;;;;;;;11.46;100.00;101144.25;5091566;28;20546;-70
2022/07/02 00:20:43;;;;;;;3.45;2.05;;;;;;;11.36;100.00;101142.03;5078347;28;20142;-71
2022/07/02 00:23:09;;;;;;;4.72;2.30;;;;;;;11.50;100.00;101160.75;5075709;28;20108;-71
2022/07/02 00:25:52;;;;;;;4.47;1.88;;;;;;;11.48;100.00;101158.22;5060750;28;20033;-71
2022/07/02 00:28:19;;;;;;;7.72;2.53;;;;;;;11.43;100.00;101154.03;5058241;28;20033;-71
2022/07/02 00:30:46;;;;;;;7.20;2.50;;;;;;;11.41;100.00;101156.75;5083934;28;20036;-71
2022/07/02 00:33:16;;;;;;;4.45;2.30;;;;;;;11.38;100.00;101162.13;5088631;28;20483;-70
2022/07/02 00:35:42;;;;;;;3.95;1.95;;;;;;;11.22;100.00;101130.31;5072214;28;20027;-71
2022/07/02 00:38:08;;;;;;;5.05;2.28;;;;;;;11.38;100.00;101158.66;5064400;28;20024;-71
2022/07/02 00:40:33;;;;;;;4.47;2.00;;;;;;;11.31;100.00;101154.56;5065125;28;20498;-71
2022/07/02 00:42:59;;;;;;;4.88;1.83;;;;;;;11.36;100.00;101152.56;5067523;28;20107;-71
2022/07/02 00:45:26;;;;;;;2.67;1.40;;;;;;;11.37;100.00;101151.66;5075720;28;20427;-71
2022/07/02 00:47:51;;;;;;;5.07;2.22;;;;;;;11.33;100.00;101144.81;5059524;28;20040;-71
2022/07/02 00:50:16;;;;;;;6.55;1.92;;;;;;;11.37;100.00;101154.28;5042756;28;20111;-71
2022/07/02 00:52:42;;;;;;;3.80;1.95;;;;;;;11.36;100.00;101160.47;5057891;28;20085;-71
2022/07/02 00:55:08;;;;;;;3.22;1.83;;;;;;;11.29;100.00;101150.19;5077687;28;20478;-71
2022/07/02 00:57:33;;;;;;;3.67;1.65;;;;;;;11.26;100.00;101150.31;5062380;28;20090;-71
2022/07/02 00:59:59;;;;;;;9.18;1.70;;;;;;;11.26;100.00;101158.22;5063881;28;20029;-71
2022/07/02 01:02:25;;;;;;;2.90;1.58;;;;;;;11.18;100.00;101144.53;5071609;28;20035;-71
2022/07/02 01:04:52;;;;;;;5.47;1.95;;;;;;;11.25;100.00;101156.50;5072292;28;20394;-71
2022/07/02 01:07:19;;;;;;;2.88;1.75;;;;;;;11.25;100.00;101145.97;5066082;28;20432;-71
2022/07/02 01:12:33;;;;;;;4.93;1.98;;;;;;;11.20;100.00;101147.97;5072886;28;20074;-71
2022/07/02 01:14:59;;;;;;;3.88;1.73;;;;;;;11.16;100.00;101135.84;5077377;28;20029;-71
2022/07/02 01:17:25;;;;;;;4.57;2.17;;;;;;;11.16;100.00;101151.63;5060336;28;20032;-71
2022/07/02 01:19:51;;;;;;;4.25;1.55;;;;;;;10.85;100.00;101108.22;5062280;28;20043;-72
2022/07/02 01:22:19;;;;;;;3.78;1.70;;;;;;;11.06;100.00;101138.91;5054090;28;20029;-71
2022/07/02 01:24:49;;;;;;;5.32;2.38;;;;;;;10.93;100.00;101121.91;5070203;28;20051;-72
2022/07/02 01:27:15;;;;;;;4.05;2.00;;;;;;;11.02;100.00;101143.44;5088845;28;20049;-71
2022/07/02 01:29:40;;;;;;;4.07;1.95;;;;;;;10.87;100.00;101116.91;5074390;28;20473;-72
2022/07/02 01:32:06;;;;;;;3.33;1.65;;;;;;;10.92;100.00;101126.31;5058456;28;20517;-70
2022/07/02 01:34:38;;;;;;;4.30;1.98;;;;;;;11.01;100.00;101141.75;5073092;28;20039;-71
2022/07/02 01:37:06;;;;;;;4.60;1.98;;;;;;;10.89;100.00;101126.44;5083939;28;20048;-71
2022/07/02 01:39:32;;;;;;;4.57;2.50;;;;;;;10.94;100.00;101140.25;5058849;28;20025;-71
2022/07/02 01:41:57;;;;;;;3.53;1.63;;;;;;;10.73;100.00;101099.91;5091887;28;20390;-71
2022/07/02 01:44:23;;;;;;;4.57;2.13;;;;;;;10.86;100.00;101125.69;5084076;28;20509;-71
2022/07/02 01:46:48;;;;;;;3.05;1.83;;;;;;;10.90;100.00;101133.41;5033195;28;1444154;-71
2022/07/02 01:49:13;;;;;;;3.70;1.90;;;;;;;10.92;100.00;101142.09;5073450;28;20024;-71
2022/07/02 01:51:39;;;;;;;5.13;2.00;;;;;;;10.90;100.00;101143.06;5073954;28;20523;-71
2022/07/02 01:54:05;;;;;;;6.10;1.98;;;;;;;10.62;100.00;101106.47;5066454;28;20064;-70
2022/07/02 01:56:32;;;;;;;5.65;1.80;;;;;;;10.84;100.00;101152.06;5077663;28;20056;-71
2022/07/02 01:58:57;;;;;;;7.25;2.92;;;;;;;10.72;100.00;101128.88;5053812;28;20036;-72
2022/07/02 02:01:23;;;;;;;5.13;2.30;;;;;;;10.68;100.00;101127.25;5057728;28;20091;-71
2022/07/02 02:03:48;;;;;;;4.13;1.95;;;;;;;10.69;100.00;101129.00;5070986;28;20103;-71
2022/07/02 02:06:13;;;;;;;6.05;1.92;;;;;;;10.78;100.00;101144.41;5082938;28;20052;-71
2022/07/02 02:08:39;;;;;;;5.35;2.20;;;;;;;10.76;100.00;101147.09;5068072;28;20024;-71
2022/07/02 02:11:04;;;;;;;5.05;2.25;;;;;;;10.74;100.00;101142.81;5054656;28;20103;-71
2022/07/02 02:13:29;;;;;;;9.38;2.25;;;;;;;10.59;100.00;101117.97;5075779;28;20036;-71
2022/07/02 02:15:55;;;;;;;4.45;1.85;;;;;;;10.65;100.00;101137.91;5039545;28;20039;-71
2022/07/02 02:18:21;;;;;;;3.53;1.98;;;;;;;10.44;100.00;101112.47;5071957;28;20397;-71
2022/07/02 02:20:46;;;;;;;4.30;2.17;;;;;;;10.26;100.00;101103.50;5085066;28;20033;-72
2022/07/02 02:23:11;;;;;;;4.53;2.08;;;;;;;10.41;100.00;101141.47;5080733;28;20107;-71
2022/07/02 02:25:37;;;;;;;5.75;2.35;;;;;;;10.38;100.00;101136.31;5059057;28;20028;-71
2022/07/02 02:28:02;;;;;;;6.15;2.75;;;;;;;10.48;100.00;101145.56;5074383;28;20125;-71
2022/07/02 02:30:27;;;;;;;4.18;2.40;;;;;;;10.45;100.00;101141.28;5079468;28;20490;-71
2022/07/02 02:32:53;;;;;;;4.68;2.83;;;;;;;10.49;100.00;101134.16;5067468;28;20040;-71
2022/07/02 02:35:18;;;;;;;6.75;2.90;;;;;;;10.50;100.00;101133.25;5081174;28;20378;-71
2022/07/02 02:37:44;;;;;;;6.57;2.72;;;;;;;10.51;100.00;101140.22;5057382;28;20021;-71
2022/07/02 02:40:09;;;;;;;6.68;2.95;;;;;;;10.41;100.00;101126.56;5086532;28;20016;-71
2022/07/02 02:42:35;;;;;;;5.38;2.83;;;;;;;10.46;100.00;101150.03;5064455;28;20032;-70
2022/07/02 02:45:01;;;;;;;5.57;3.00;;;;;;;10.43;100.00;101147.53;5067883;28;20155;-70
2022/07/02 02:47:26;;;;;;;7.20;3.25;;;;;;;10.33;100.00;101140.91;5077751;28;20111;-70
2022/07/02 02:49:52;;;;;;;11.73;3.13;;;;;;;10.29;100.00;101129.66;5089534;28;20031;-70
2022/07/02 02:52:17;;;;;;;8.65;3.10;;;;;;;10.36;100.00;101146.03;5043650;28;20123;-70
2022/07/02 02:54:43;;;;;;;4.68;2.80;;;;;;;10.35;100.00;101160.94;5071023;28;20032;-70
2022/07/02 02:57:09;;;;;;;3.95;2.50;;;;;;;10.33;100.00;101161.91;5050918;28;20024;-70
2022/07/02 02:59:34;;;;;;;4.63;2.70;;;;;;;10.23;100.00;101140.38;5082529;28;20033;-70
2022/07/02 03:02:00;;;;;;;10.43;2.50;;;;;;;10.30;100.00;101152.38;5052659;28;20028;-71
2022/07/02 03:04:25;;;;;;;5.22;3.00;;;;;;;10.11;100.00;101131.16;5057604;28;20020;-71
2022/07/02 03:06:50;;;;;;;8.40;3.17;;;;;;;10.17;100.00;101149.31;5071944;28;20194;-71
2022/07/02 03:09:16;;;;;;;6.18;2.92;;;;;;;10.11;100.00;101140.78;5053992;28;20029;-70
2022/07/02 03:11:41;;;;;;;5.60;2.53;;;;;;;10.11;100.00;101146.91;5053101;28;20115;-70
2022/07/02 03:14:07;;;;;;;5.03;2.95;;;;;;;10.10;100.00;101145.22;5052327;28;20024;-71
2022/07/02 03:16:32;;;;;;;8.65;3.47;;;;;;;10.13;100.00;101152.97;5045310;28;20083;-71
2022/07/02 03:18:57;;;;;;;4.45;3.08;;;;;;;10.09;100.00;101146.13;5077167;28;20403;-71
2022/07/02 03:21:23;;;;;;;5.15;2.85;;;;;;;10.13;100.00;101155.59;5076057;28;20039;-71
2022/07/02 03:23:48;;;;;;;4.45;2.75;;;;;;;10.06;100.00;101140.97;5069134;28;20025;-71
2022/07/02 03:26:13;;;;;;;4.63;2.55;;;;;;;10.16;100.00;101160.78;5082328;28;20090;-71
2022/07/02 03:28:39;;;;;;;12.23;2.72;;;;;;;9.78;100.00;101106.13;5080899;28;20032;-71
2022/07/02 03:31:05;;;;;;;3.72;2.45;;;;;;;10.07;100.00;101149.72;5069597;28;20039;-71
2022/07/02 03:33:30;;;;;;;5.47;2.72;;;;;;;10.13;100.00;101160.00;5060579;28;20438;-71
2022/07/02 03:35:56;;;;;;;5.03;2.80;;;;;;;10.00;100.00;101143.81;5068443;28;20051;-71
2022/07/02 03:38:21;;;;;;;5.05;2.80;;;;;;;10.00;100.00;101154.31;5074797;28;20024;-71
2022/07/02 03:40:46;;;;;;;5.05;2.60;;;;;;;9.93;100.00;101149.34;5065731;28;20024;-71
2022/07/02 03:43:12;;;;;;;4.57;2.78;;;;;;;9.97;100.00;101170.16;5089801;28;20146;-71
2022/07/02 03:45:37;;;;;;;5.03;2.92;;;;;;;9.87;100.00;101160.06;5075737;28;20035;-71
2022/07/02 03:48:03;;;;;;;5.05;2.67;;;;;;;9.88;100.00;101164.38;5081669;28;20486;-70
2022/07/02 03:50:28;;;;;;;4.00;2.33;;;;;;;9.95;100.00;101172.00;5087133;28;20483;-70
2022/07/02 03:52:54;;;;;;;4.60;2.80;;;;;;;9.93;100.00;101167.72;5086583;28;20028;-70
2022/07/02 03:55:19;;;;;;;12.95;3.10;;;;;;;9.99;100.00;101178.84;5072004;28;20107;-70
2022/07/02 03:57:45;;;;;;;6.30;3.25;;;;;;;9.94;100.00;101158.91;5028534;28;20025;-71
2022/07/02 04:00:10;;;;;;;5.85;2.90;;;;;;;10.02;100.00;101173.50;5080365;28;20032;-71
2022/07/02 04:02:36;;;;;;;3.90;2.55;;;;;;;10.00;100.00;101166.59;5076983;28;20040;-71
2022/07/02 04:05:01;;;;;;;8.07;3.28;;;;;;;10.04;100.00;101166.41;5069194;28;20111;-71
2022/07/02 04:07:27;;;;;;;4.88;2.97;;;;;;;10.06;100.00;101177.72;5062749;28;20055;-72
2022/07/02 04:09:52;;;;;;;5.68;2.78;;;;;;;10.00;100.00;101167.47;5074238;28;20021;-72
2022/07/02 04:12:17;;;;;;;4.78;3.13;;;;;;;10.02;100.00;101162.13;5074624;28;20069;-71
2022/07/02 04:14:43;;;;;;;4.47;2.70;;;;;;;10.12;100.00;101177.50;5094034;28;20016;-71
2022/07/02 04:17:08;;;;;;;4.90;2.92;;;;;;;9.83;100.00;101127.81;5049501;28;20035;-72
2022/07/02 04:19:33;;;;;;;5.13;2.95;;;;;;;10.07;100.00;101162.84;5048363;28;20106;-72
2022/07/02 04:22:01;;;;;;;7.57;3.15;;;;;;;10.22;100.00;101178.06;5085678;28;20190;-71
2022/07/02 04:24:28;;;;;;;7.80;3.40;;;;;;;10.22;100.00;101171.03;5066048;28;20077;-72
2022/07/02 04:26:53;;;;;;;5.00;3.47;;;;;;;10.26;100.00;101169.16;5057696;28;20024;-71
2022/07/02 04:29:19;;;;;;;6.28;3.42;;;;;;;10.13;100.00;101133.72;5038083;28;20036;-70
2022/07/02 04:31:44;;;;;;;5.10;2.90;;;;;;;10.36;100.00;101170.53;5061473;28;20360;-71
2022/07/02 04:34:09;;;;;;;3.72;2.65;;;;;;;10.33;100.00;101146.16;5082044;28;20055;-71
2022/07/02 04:36:36;;;;;;;4.35;2.92;;;;;;;10.41;100.00;101159.88;5092263;28;20039;-71
2022/07/02 04:39:02;;;;;;;8.07;3.40;;;;;;;10.50;100.00;101162.16;5063431;28;20036;-70
2022/07/02 04:41:28;;;;;;;5.78;3.22;;;;;;;10.53;100.00;101165.53;5054136;28;20031;-71
2022/07/02 04:43:54;;;;;;;6.80;3.10;;;;;;;10.62;100.00;101165.16;5049603;28;20025;-71
2022/07/02 04:46:19;;;;;;;6.28;2.95;;;;;;;10.66;100.00;101160.66;5054148;28;20032;-71
2022/07/02 04:48:44;;;;;;;5.15;3.25;;;;;;;10.77;100.00;101163.72;5074365;28;20086;-71
2022/07/02 04:51:10;;;;;;;7.40;3.90;;;;;;;10.75;100.00;101150.63;5077767;28;20513;-71
2022/07/02 04:53:35;;;;;;;7.90;3.50;;;;;;;10.87;100.00;101151.94;5073124;28;20363;-71
2022/07/02 04:56:00;;;;;;;6.07;2.47;;;;;;;10.96;100.00;101159.44;5074614;28;20044;-70
2022/07/02 04:58:26;;;;;;;5.70;3.17;;;;;;;11.08;100.00;101164.25;5079279;28;20043;-71
2022/07/02 05:00:51;;;;;;;11.45;3.63;;;;;;;11.14;100.00;101160.50;5082600;28;20028;-71
2022/07/02 05:03:16;;;;;;;3.72;2.22;;;;;;;11.31;100.00;101180.88;5063386;28;20024;-71
2022/07/02 05:05:42;;;;;;;5.55;2.83;;;;;;;11.37;100.00;101181.47;5078978;28;20378;-71
2022/07/02 05:08:07;;;;;;;3.90;2.53;;;;;;;11.41;100.00;101171.69;5093600;28;20028;-70
2022/07/02 05:10:33;;;;;;;6.45;2.90;;;;;;;11.48;100.00;101152.09;5067400;28;20387;-71
2022/07/02 05:12:58;;;;;;;5.82;2.17;;;;;;;11.60;100.00;101155.06;5068214;28;20096;-71
2022/07/02 05:15:24;;;;;;;4.80;2.50;;;;;;;11.83;100.00;101180.44;5061049;28;20032;-71
2022/07/02 05:17:49;;;;;;;3.30;1.50;;;;;;;11.91;100.00;101178.34;5072043;28;20032;-71
2022/07/02 05:20:14;;;;;;;4.25;1.88;;;;;;;11.93;100.00;101171.19;5065085;28;20086;-71
2022/07/02 05:22:40;;;;;;;3.28;1.85;;;;;;;11.96;100.00;101171.09;5067346;28;20370;-71
2022/07/02 05:25:06;;;;;;;3.10;1.50;;;;;;;12.02;100.00;101168.19;5091322;28;20046;-71
2022/07/02 05:27:31;;;;;;;6.65;1.80;;;;;;;12.16;100.00;101181.63;5091099;28;20162;-71
2022/07/02 05:29:56;;;;;;;2.67;1.35;;;;;;;12.30;100.00;101186.28;5055617;28;20059;-71
2022/07/02 05:32:22;;;;;;;2.97;1.10;;;;;;;12.44;100.00;101183.84;5060647;28;20028;-71
2022/07/02 05:34:47;;;;;;;3.58;1.38;;;;;;;12.54;100.00;101190.41;5072185;28;20424;-71
2022/07/02 05:37:12;;;;;;;3.67;1.33;;;;;;;12.52;100.00;101172.97;5084281;28;20035;-71
2022/07/02 05:39:38;;;;;;;3.17;1.58;;;;;;;12.74;100.00;101185.09;5073234;28;20029;-70
2022/07/02 05:42:04;;;;;;;2.45;1.20;;;;;;;12.92;100.00;101191.28;5070563;28;20374;-71
2022/07/02 05:44:29;;;;;;;3.25;1.35;;;;;;;13.05;100.00;101202.09;5081804;28;20024;-71
2022/07/02 05:46:55;;;;;;;2.33;1.30;;;;;;;13.16;100.00;101194.56;5072636;28;20048;-71
2022/07/02 05:49:20;;;;;;;3.13;1.27;;;;;;;13.25;100.00;101192.34;5069608;28;20043;-71
2022/07/02 05:51:45;;;;;;;3.40;1.00;;;;;;;13.36;100.00;101193.63;5058256;28;20072;-70
2022/07/02 05:54:11;;;;;;;2.60;0.77;;;;;;;13.51;100.00;101192.88;5082001;28;20470;-71
2022/07/02 05:56:36;;;;;;;2.40;1.13;;;;;;;13.57;100.00;101179.34;5077672;28;20024;-70
2022/07/02 05:59:01;;;;;;;5.43;1.67;;;;;;;13.70;100.00;101185.72;5093047;28;20028;-71
2022/07/02 06:01:27;;;;;;;3.97;1.17;;;;;;;13.78;100.00;101186.22;5078047;28;20021;-70
2022/07/02 06:03:53;;;;;;;3.15;1.00;;;;;;;13.93;100.00;101187.19;5087900;28;20024;-71
2022/07/02 06:09:02;;;;;;;2.95;1.02;;;;;;;14.02;100.00;101187.59;5073853;28;20081;-70
2022/07/02 06:11:29;;;;;;;3.22;1.15;;;;;;;14.12;100.00;101183.56;5085687;28;20118;-71
2022/07/02 06:13:54;;;;;;;6.82;1.63;;;;;;;14.18;100.00;101177.94;5072355;28;20020;-71
2022/07/02 06:16:20;;;;;;;2.75;1.13;;;;;;;14.28;100.00;101178.28;5083311;28;20030;-70
2022/07/02 06:18:45;;;;;;;3.38;1.02;;;;;;;14.31;100.00;101173.69;5056357;28;20470;-71
2022/07/02 06:21:10;;;;;;;3.08;1.15;;;;;;;14.43;100.00;101177.50;5072712;28;20111;-71
2022/07/02 06:23:36;;;;;;;4.47;0.95;;;;;;;14.50;100.00;101173.59;5084453;28;20020;-71
2022/07/02 06:26:01;;;;;;;3.17;0.90;;;;;;;14.26;100.00;101117.56;5044544;28;20020;-71
2022/07/02 06:28:26;;;;;;;4.60;1.30;;;;;;;14.69;100.00;101179.63;5081527;28;20081;-71
2022/07/02 06:30:52;;;;;;;2.63;1.00;;;;;;;14.78;100.00;101179.09;5055938;28;20052;-71
2022/07/02 06:33:17;;;;;;;1.77;0.70;;;;;;;14.78;100.00;101173.81;5060341;28;20024;-71
2022/07/02 06:35:43;;;;;;;3.20;1.00;;;;;;;14.88;100.00;101168.00;5053460;28;20028;-71
2022/07/02 06:38:09;;;;;;;2.60;0.98;;;;;;;14.84;100.00;101156.72;5054615;28;20129;-70
2022/07/02 06:40:34;;;;;;;4.75;0.85;;;;;;;15.11;100.00;101186.94;5047997;28;20498;-71
2022/07/02 06:42:59;;;;;;;3.65;1.10;;;;;;;14.92;100.00;101143.94;5051149;28;20422;-70
2022/07/02 06:45:25;;;;;;;2.33;0.95;;;;;;;15.25;100.00;101180.88;5085069;28;20082;-71
2022/07/02 06:47:50;;;;;;;4.75;1.05;;;;;;;15.41;100.00;101186.16;5055600;28;20051;-71
2022/07/02 06:50:18;;;;;;;3.00;0.95;;;;;;;15.57;100.00;101187.88;5078024;28;20017;-71
2022/07/02 06:52:45;;;;;;;2.67;0.85;;;;;;;15.64;100.00;101180.41;5075247;28;20032;-70
2022/07/02 06:55:11;;;;;;;2.80;0.93;;;;;;;15.73;100.00;101180.72;5052464;28;20510;-70
2022/07/02 06:57:37;;;;;;;5.53;1.40;;;;;;;15.74;100.00;101184.22;5054208;28;20028;-71
2022/07/02 07:00:04;;;;;;;2.78;0.70;;;;;;;15.77;100.00;101176.09;5077637;28;20020;-71
2022/07/02 07:02:30;;;;;;;3.50;1.25;;;;;;;15.92;100.00;101191.06;5062352;28;20032;-69
2022/07/02 07:04:55;;;;;;;2.40;0.70;;;;;;;15.97;100.00;101177.56;5055174;28;20387;-70
2022/07/02 07:07:26;;;;;;;1.80;0.98;;;;;;;16.01;100.00;101177.28;5092363;28;20098;-70
2022/07/02 07:09:52;;;;;;;2.33;1.02;;;;;;;16.21;100.00;101192.84;5057915;28;20033;-70
2022/07/02 07:12:17;;;;;;;3.17;1.00;;;;;;;16.18;100.00;101177.13;5088429;28;20023;-70
2022/07/02 07:14:43;;;;;;;3.45;1.00;;;;;;;16.20;100.00;101164.59;5075188;28;20082;-71
2022/07/02 07:17:08;;;;;;;2.95;1.00;;;;;;;16.30;100.00;101179.00;5090292;28;20435;-70
2022/07/02 07:19:33;;;;;;;7.22;1.23;;;;;;;16.41;100.00;101182.81;5081871;28;20024;-71
2022/07/02 07:21:59;;;;;;;4.47;1.13;;;;;;;16.39;100.00;101174.09;5061229;28;20383;-71
2022/07/02 07:24:24;;;;;;;3.42;1.20;;;;;;;16.43;100.00;101171.16;5075913;28;20038;-71
2022/07/02 07:26:50;;;;;;;3.75;0.68;;;;;;;16.57;100.00;101194.19;5083175;28;20024;-72
2022/07/02 07:29:16;;;;;;;2.83;1.02;;;;;;;16.78;100.00;101204.34;5093703;28;20058;-70
2022/07/02 07:31:42;;;;;;;3.60;0.90;;;;;;;16.90;100.00;101202.69;5064829;28;20028;-70
2022/07/02 07:34:08;;;;;;;4.35;1.20;;;;;;;16.87;100.00;101189.63;5054738;28;20082;-70
2022/07/02 07:36:34;;;;;;;1.92;0.70;;;;;;;17.02;100.00;101191.31;5075319;28;20059;-71
2022/07/02 07:39:01;;;;;;;5.00;1.08;;;;;;;17.17;100.00;101192.97;5058966;28;20047;-70
2022/07/02 07:41:27;;;;;;;1.92;0.73;;;;;;;17.23;100.00;101183.75;5061044;28;20031;-71
2022/07/02 07:43:52;;;;;;;2.80;0.98;;;;;;;17.30;100.00;101169.94;5092931;28;20032;-71
2022/07/02 07:46:19;;;;;;;1.80;0.80;;;;;;;17.49;100.00;101192.66;5060129;28;20074;-72
2022/07/02 07:48:45;;;;;;;2.00;0.90;;;;;;;17.55;100.00;101194.91;5064958;28;20739;-71
2022/07/02 07:51:10;;;;;;;3.63;1.30;;;;;;;17.45;100.00;101178.72;5080169;28;20024;-71
2022/07/02 07:53:35;;;;;;;2.53;0.85;;;;;;;17.48;100.00;101167.88;5073534;28;20028;-71
2022/07/02 07:56:01;;;;;;;6.53;0.98;;;;;;;17.48;100.00;101167.03;5088024;28;20481;-71
2022/07/02 07:58:26;;;;;;;3.50;1.30;;;;;;;17.59;100.00;101176.03;5055896;28;20029;-70
2022/07/02 08:00:52;;;;;;;3.03;0.85;;;;;;;17.67;100.00;101172.88;5053073;28;20033;-70
2022/07/02 08:03:18;;;;;;;1.75;0.65;;;;;;;17.75;100.00;101176.72;5057989;28;20474;-70
2022/07/02 08:05:46;;;;;;;4.15;1.15;;;;;;;17.74;100.00;101150.25;5058043;28;20158;-70
2022/07/02 08:08:12;;;;;;;3.00;1.13;;;;;;;18.02;100.00;101167.81;5057847;28;20032;-70
2022/07/02 08:10:37;;;;;;;3.35;1.17;;;;;;;18.14;100.00;101173.16;5080284;28;20041;-71
2022/07/02 08:13:02;;;;;;;4.57;1.10;;;;;;;18.11;100.00;101168.03;5077764;28;20023;-67
2022/07/02 08:15:28;;;;;;;2.55;0.85;;;;;;;18.16;100.00;101159.72;5053697;28;20071;-70
2022/07/02 08:17:54;;;;;;;7.05;1.50;;;;;;;18.21;100.00;101158.47;5062545;28;20032;-70
2022/07/02 08:20:20;;;;;;;3.92;1.08;;;;;;;18.37;100.00;101169.75;5078254;28;20436;-70
2022/07/02 08:22:46;;;;;;;6.40;1.30;;;;;;;18.43;100.00;101176.44;5087490;28;20028;-71
2022/07/02 08:25:13;;;;;;;3.03;1.20;;;;;;;18.43;100.00;101159.59;5062129;28;20035;-70
2022/07/02 08:27:39;;;;;;;1.90;0.82;;;;;;;18.54;100.00;101170.38;5045336;28;20974;-71
2022/07/02 08:30:06;;;;;;;1.98;0.90;;;;;;;18.61;100.00;101159.19;5064718;28;20020;-70
2022/07/02 08:32:31;;;;;;;3.15;1.02;;;;;;;18.62;100.00;101146.75;5045969;28;20446;-70
2022/07/02 08:34:58;;;;;;;1.90;0.70;;;;;;;18.88;100.00;101165.22;5053080;28;20063;-71
2022/07/02 08:37:24;;;;;;;2.35;0.98;;;;;;;18.84;100.00;101152.22;5070493;28;20046;-70
2022/07/02 08:39:49;;;;;;;4.18;1.15;;;;;;;19.02;100.00;101161.53;5070336;28;20461;-72
2022/07/02 08:42:27;;;;;;;2.75;1.00;;;;;;;19.09;100.00;101164.59;5065745;28;20082;-70
2022/07/02 08:44:53;;;;;;;8.32;0.98;;;;;;;19.09;100.00;101157.47;5066133;28;20053;-69
2022/07/02 08:47:19;;;;;;;2.15;0.95;;;;;;;19.26;100.00;101169.53;5066063;28;20037;-70
2022/07/02 08:49:46;;;;;;;3.05;0.90;;;;;;;19.32;100.00;101155.75;5067461;28;20028;-69
2022/07/02 08:52:14;;;;;;;2.53;0.85;;;;;;;19.48;100.00;101179.47;5035584;28;20120;-70
2022/07/02 08:54:40;;;;;;;2.33;0.82;;;;;;;19.41;100.00;101156.91;5059748;28;20021;-70
2022/07/02 08:57:07;;;;;;;2.60;1.02;;;;;;;19.56;100.00;101161.09;5009845;28;20886;-70
2022/07/02 08:59:32;;;;;;;3.67;1.17;;;;;;;19.58;100.00;101165.34;5006156;28;20028;-69
2022/07/02 09:02:02;;;;;;;2.28;0.60;;;;;;;19.65;100.00;101147.06;5027340;28;20805;-70
2022/07/02 09:04:28;;;;;;;5.13;1.17;;;;;;;19.78;100.00;101161.16;5055532;28;20036;-72
2022/07/02 09:06:57;;;;;;;3.45;1.35;;;;;;;19.89;100.00;101162.06;5042106;28;20032;-69
2022/07/02 09:09:23;;;;;;;2.47;1.00;;;;;;;20.05;100.00;101156.38;5062371;28;20020;-68
2022/07/02 09:11:48;;;;;;;4.30;0.80;;;;;;;20.07;100.00;101133.09;5067244;28;20028;-71
2022/07/02 09:14:14;;;;;;;8.05;0.90;;;;;;;20.13;100.00;101124.63;5064912;28;20081;-71
2022/07/02 09:16:40;;;;;;;2.58;0.90;;;;;;;20.34;100.00;101138.13;5065307;28;20035;-70
2022/07/02 09:19:05;;;;;;;2.30;0.70;;;;;;;20.42;100.00;101126.81;5052424;28;20024;-70
2022/07/02 09:21:48;;;;;;;3.40;1.20;;;;;;;20.68;100.00;101130.94;5063975;28;20036;-70
2022/07/02 09:24:14;;;;;;;2.85;1.05;;;;;;;20.85;100.00;101122.41;5072243;28;20029;-71
2022/07/02 09:26:39;;;;;;;3.78;1.17;;;;;;;21.06;100.00;101114.44;5084048;28;20020;-71
2022/07/02 09:29:05;;;;;;;4.45;1.05;;;;;;;21.19;100.00;101110.66;5075917;28;20031;-70
2022/07/02 09:31:31;;;;;;;2.40;0.88;;;;;;;21.21;97.92;101103.38;5065242;28;20053;-70
2022/07/02 09:33:58;;;;;;;1.60;0.50;;;;;;;21.28;91.39;101109.91;5085961;28;20370;-69
2022/07/02 09:36:24;;;;;;;1.50;0.70;;;;;;;21.48;95.57;101118.09;5041537;28;20029;-70
2022/07/02 09:38:52;;;;;;;2.85;0.93;;;;;;;21.48;92.24;101110.91;5070472;28;20047;-70
2022/07/02 09:41:20;;;;;;;2.20;0.70;;;;;;;21.65;85.44;101123.72;5071474;28;20095;-70
2022/07/02 09:43:51;;;;;;;2.55;1.17;;;;;;;21.59;94.48;101118.03;5070393;28;20039;-71
2022/07/02 09:46:18;;;;;;;2.75;0.80;;;;;;;21.35;89.25;101110.25;5071627;28;20036;-71
2022/07/02 09:48:44;;;;;;;2.97;1.13;;;;;;;21.32;84.59;101100.66;5036573;28;20032;-70
2022/07/02 09:51:10;;;;;;;4.65;1.25;;;;;;;21.33;83.46;101118.38;5051078;28;20103;-70
2022/07/02 09:53:46;;;;;;;2.53;0.80;;;;;;;21.31;85.25;101101.63;5080887;28;20115;-70
2022/07/02 09:56:12;;;;;;;2.35;1.00;;;;;;;21.53;86.13;101099.84;5062488;28;20090;-70
2022/07/02 09:58:37;;;;;;;2.08;0.90;;;;;;;21.60;81.99;101098.31;5049592;28;20032;-71
2022/07/02 10:01:03;;;;;;;3.45;1.17;;;;;;;21.68;85.54;101093.16;5078445;28;20116;-69
2022/07/02 10:03:29;;;;;;;4.15;1.15;;;;;;;21.93;84.26;101087.47;5046137;28;20111;-70
2022/07/02 10:05:54;;;;;;;4.90;1.05;;;;;;;22.24;79.44;101089.13;5059558;28;20024;-69
2022/07/02 10:08:20;;;;;;;3.60;1.20;;;;;;;22.24;85.03;101083.78;5074081;28;20478;-70
2022/07/02 10:10:46;;;;;;;1.95;0.85;;;;;;;22.38;83.76;101091.44;5073174;28;20032;-70
2022/07/02 10:13:13;;;;;;;4.82;0.80;;;;;;;22.50;78.09;101096.72;5074310;28;20438;-70
2022/07/02 10:16:01;;;;;;;7.47;1.05;;;;;;;22.47;76.58;101078.22;5051590;28;20035;-70
2022/07/02 10:18:26;;;;;;;2.40;0.80;;;;;;;22.58;85.26;101092.34;5051152;28;20056;-70
2022/07/02 10:20:55;;;;;;;2.88;0.77;;;;;;;22.56;76.40;101072.03;5050877;28;20063;-69
2022/07/02 10:23:21;;;;;;;5.30;0.93;;;;;;;22.62;70.13;101079.53;5078567;28;20116;-69
2022/07/02 10:25:47;;;;;;;4.25;0.90;;;;;;;22.57;68.48;101073.75;5083148;28;20111;-69
2022/07/02 10:28:12;;;;;;;4.32;0.90;;;;;;;22.55;70.74;101070.34;5088892;28;20477;-69
2022/07/02 10:30:38;;;;;;;4.10;0.80;;;;;;;22.62;70.67;101068.81;5077695;28;20029;-70
2022/07/02 10:33:13;;;;;;;4.93;1.23;;;;;;;22.58;77.37;101064.69;5051601;28;20064;-70
2022/07/02 10:35:39;;;;;;;2.80;0.70;;;;;;;22.64;73.57;101080.25;5076345;28;20039;-69
2022/07/02 10:38:05;;;;;;;4.40;0.82;;;;;;;22.82;79.79;101074.09;5066844;28;20029;-70
2022/07/02 10:40:31;;;;;;;1.85;0.80;;;;;;;23.05;80.32;101072.00;5080373;28;20032;-70
2022/07/02 10:42:59;;;;;;;1.38;0.50;;;;;;;23.06;79.00;101073.69;5048067;28;20090;-69
2022/07/02 10:45:25;;;;;;;3.25;0.70;;;;;;;22.84;73.22;101090.91;5086753;28;20028;-70
2022/07/02 10:47:54;;;;;;;2.00;0.80;;;;;;;22.72;72.14;101083.09;5062630;28;20044;-69
2022/07/02 10:50:40;;;;;;;4.00;0.80;;;;;;;22.51;69.85;101071.63;5065261;28;20029;-70
2022/07/02 10:53:13;;;;;;;2.35;0.60;;;;;;;22.47;74.62;101083.59;5061435;28;20044;-71
2022/07/02 10:55:44;;;;;;;1.90;0.60;;;;;;;22.36;68.27;101076.50;5072688;28;20029;-70
2022/07/02 10:58:19;;;;;;;1.83;0.65;;;;;;;22.35;70.53;101067.63;5088038;28;20024;-70
2022/07/02 11:00:44;;;;;;;5.85;1.10;;;;;;;22.37;75.24;101054.91;5056311;28;20082;-70
2022/07/02 11:03:24;;;;;;;2.50;0.60;;;;;;;22.41;78.52;101037.59;5073749;28;20471;-70
2022/07/02 11:06:01;;;;;;;2.97;0.70;;;;;;;22.77;74.71;101041.53;5060131;28;20028;-69
2022/07/02 11:08:44;;;;;;;1.63;0.65;;;;;;;23.27;76.45;101060.16;5069877;28;20024;-70
2022/07/02 11:11:10;;;;;;;2.50;0.90;;;;;;;23.33;70.46;101052.38;5064795;28;20024;-69
2022/07/02 11:14:09;;;;;;;2.60;0.80;;;;;;;23.54;72.13;101049.56;5067370;28;20032;-69
2022/07/02 11:16:46;;;;;;;1.90;0.82;;;;;;;23.61;70.85;101025.69;5065698;28;20486;-69
2022/07/02 11:19:25;;;;;;;1.92;0.73;;;;;;;24.07;73.30;101038.22;5057436;28;20530;-68
2022/07/02 11:21:54;;;;;;;3.78;0.70;;;;;;;24.23;67.61;101036.63;5069107;28;20029;-69